Time;durP1;ratioP1;P1;durP2;ratioP2;P2;SDS_P1;SDS_P2;PMS_P1;PMS_P2;Temp;Humidity;BMP_temperature;BMP_pressure;BME280_temperature;BME280_humidity;BME280_pressure;Samples;Min_cycle;Max_cycle;Signal;HPM_P1;HPM_P2
2022/05/28 00:00:01;;;;;;;4.93;1.67;;;;;;;;;;5106373;27;20026;-73
2022/05/28 00:02:27;;;;;;;6.90;1.70;;;;;;;;;;5117530;27;20391;-73
2022/05/28 00:04:52;;;;;;;7.15;1.92;;;;;;;;;;5118166;27;20462;-73
2022/05/28 00:07:17;;;;;;;6.63;2.13;;;;;;;;;;5123764;27;20027;-76
2022/05/28 00:09:43;;;;;;;4.15;1.60;;;;;;;;;;5113670;27;20024;-76
2022/05/28 00:12:08;;;;;;;4.63;1.65;;;;;;;;;;5121849;27;20120;-77
2022/05/28 00:14:33;;;;;;;3.47;1.52;;;;;;;;;;5089479;27;21589;-73
2022/05/28 00:16:59;;;;;;;5.03;1.50;;;;;;;;;;5108059;27;20019;-77
2022/05/28 00:19:24;;;;;;;6.65;1.70;;;;;;;;;;5114591;27;20151;-73
2022/05/28 00:21:49;;;;;;;5.32;1.80;;;;;;;;;;5116363;27;20024;-73
2022/05/28 00:24:15;;;;;;;5.40;1.52;;;;;;;;;;5114900;27;20093;-73
2022/05/28 00:26:44;;;;;;;4.70;1.80;;;;;;;;;;5100720;27;20048;-73
2022/05/28 00:29:10;;;;;;;6.15;1.95;;;;;;;;;;5093363;27;20470;-75
2022/05/28 00:31:35;;;;;;;5.38;2.25;;;;;;;;;;5113806;27;20470;-76
2022/05/28 00:34:00;;;;;;;9.00;2.10;;;;;;;;;;5110215;27;20062;-77
2022/05/28 00:36:26;;;;;;;5.00;1.67;;;;;;;;;;5109840;27;20031;-75
2022/05/28 00:38:52;;;;;;;6.40;1.75;;;;;;;;;;5109701;27;20061;-75
2022/05/28 00:41:17;;;;;;;6.50;1.90;;;;;;;;;;5111521;27;20467;-77
2022/05/28 00:43:45;;;;;;;7.93;2.03;;;;;;;;;;5095302;27;20027;-76
2022/05/28 00:46:16;;;;;;;6.57;2.38;;;;;;;;;;5117878;27;20040;-73
2022/05/28 00:48:45;;;;;;;8.40;2.10;;;;;;;;;;5118224;27;20039;-78
2022/05/28 00:51:18;;;;;;;6.65;1.95;;;;;;;;;;5098686;28;20410;-73
2022/05/28 00:53:44;;;;;;;6.63;2.63;;;;;;;;;;5114933;27;20030;-77
2022/05/28 00:56:09;;;;;;;7.50;2.40;;;;;;;;;;5116559;27;20023;-77
2022/05/28 00:58:35;;;;;;;4.40;1.85;;;;;;;;;;5120654;27;20031;-76
2022/05/28 01:01:03;;;;;;;7.47;2.00;;;;;;;;;;5117204;28;20102;-76
2022/05/28 01:03:35;;;;;;;7.72;2.10;;;;;;;;;;5116259;28;20031;-77
2022/05/28 01:06:36;;;;;;;7.03;1.92;;;;;;;;;;5115533;28;20023;-76
2022/05/28 01:09:10;;;;;;;5.03;2.00;;;;;;;;;;5073825;28;20082;-77
2022/05/28 01:11:59;;;;;;;6.07;2.00;;;;;;;;;;5121436;28;20027;-77
2022/05/28 01:14:46;;;;;;;6.82;1.75;;;;;;;;;;5119192;27;20468;-73
2022/05/28 01:17:17;;;;;;;6.45;1.88;;;;;;;;;;5119571;28;20023;-77
2022/05/28 01:19:53;;;;;;;7.07;2.20;;;;;;;;;;5121183;27;20070;-73
2022/05/28 01:22:41;;;;;;;5.47;1.85;;;;;;;;;;5123284;27;20025;-76
2022/05/28 01:25:24;;;;;;;6.60;2.03;;;;;;;;;;5119022;27;20027;-75
2022/05/28 01:28:04;;;;;;;6.63;1.60;;;;;;;;;;5101662;27;20551;-73
2022/05/28 01:30:30;;;;;;;5.97;1.90;;;;;;;;;;5100124;27;20483;-77
2022/05/28 01:32:59;;;;;;;7.53;2.00;;;;;;;;;;5121970;27;20113;-73
2022/05/28 01:35:27;;;;;;;4.22;1.65;;;;;;;;;;5120970;27;20081;-72
2022/05/28 01:37:53;;;;;;;5.28;1.70;;;;;;;;;;5095061;27;21718;-76
2022/05/28 01:40:21;;;;;;;5.78;1.67;;;;;;;;;;5098331;27;20102;-77
2022/05/28 01:42:51;;;;;;;6.53;2.10;;;;;;;;;;5118155;27;20027;-76
2022/05/28 01:45:18;;;;;;;4.57;1.67;;;;;;;;;;5100541;27;20556;-73
2022/05/28 01:47:44;;;;;;;5.10;1.80;;;;;;;;;;5106768;27;20071;-73
2022/05/28 01:50:12;;;;;;;8.30;1.88;;;;;;;;;;5109799;27;20070;-74
2022/05/28 01:52:39;;;;;;;5.05;2.08;;;;;;;;;;5124789;27;20118;-75
2022/05/28 01:55:07;;;;;;;6.03;1.80;;;;;;;;;;5117922;27;20039;-78
2022/05/28 01:57:33;;;;;;;5.10;1.55;;;;;;;;;;5120673;27;20019;-73
2022/05/28 01:59:58;;;;;;;7.13;1.58;;;;;;;;;;5116968;27;20019;-76
2022/05/28 02:02:23;;;;;;;9.13;1.90;;;;;;;;;;5107530;27;20027;-78
2022/05/28 02:04:49;;;;;;;6.18;1.75;;;;;;;;;;5104212;27;20027;-77
2022/05/28 02:07:16;;;;;;;4.25;1.63;;;;;;;;;;5122854;27;20162;-77
2022/05/28 02:09:47;;;;;;;3.97;1.45;;;;;;;;;;5123726;27;20058;-74
2022/05/28 02:12:21;;;;;;;5.32;1.90;;;;;;;;;;5120136;27;20024;-74
2022/05/28 02:15:25;;;;;;;6.00;1.70;;;;;;;;;;5126013;27;20054;-78
2022/05/28 02:17:53;;;;;;;4.57;1.55;;;;;;;;;;5105231;27;20155;-77
2022/05/28 02:20:40;;;;;;;7.05;2.38;;;;;;;;;;5116901;27;20479;-73
2022/05/28 02:23:20;;;;;;;4.22;1.70;;;;;;;;;;5122141;27;20371;-77
2022/05/28 02:25:53;;;;;;;9.52;2.50;;;;;;;;;;5118340;27;20032;-78
2022/05/28 02:28:22;;;;;;;5.10;1.77;;;;;;;;;;5099828;27;20031;-78
2022/05/28 02:30:51;;;;;;;6.15;2.08;;;;;;;;;;5113465;27;20483;-73
2022/05/28 02:33:16;;;;;;;9.23;1.92;;;;;;;;;;5119709;27;20126;-73
2022/05/28 02:35:41;;;;;;;7.65;2.20;;;;;;;;;;5118453;27;20106;-74
2022/05/28 02:38:07;;;;;;;6.05;1.80;;;;;;;;;;5113288;27;20034;-73
2022/05/28 02:40:32;;;;;;;7.20;1.95;;;;;;;;;;5111224;27;20031;-77
2022/05/28 02:42:57;;;;;;;5.72;1.90;;;;;;;;;;5096503;27;20019;-75
2022/05/28 02:45:23;;;;;;;5.95;1.65;;;;;;;;;;5101991;27;20019;-73
2022/05/28 02:47:48;;;;;;;6.78;1.90;;;;;;;;;;5118408;27;20027;-77
2022/05/28 02:50:13;;;;;;;6.68;2.08;;;;;;;;;;5118273;27;20035;-76
2022/05/28 02:52:39;;;;;;;6.30;1.50;;;;;;;;;;5108828;27;20080;-77
2022/05/28 02:55:05;;;;;;;4.90;1.77;;;;;;;;;;5100879;27;20050;-72
2022/05/28 02:57:30;;;;;;;5.88;1.40;;;;;;;;;;5097978;27;20023;-73
2022/05/28 02:59:56;;;;;;;5.65;1.35;;;;;;;;;;5117005;27;20148;-77
2022/05/28 03:02:22;;;;;;;6.45;1.70;;;;;;;;;;5116338;27;20107;-76
2022/05/28 03:04:47;;;;;;;4.85;1.40;;;;;;;;;;5122504;27;20027;-76
2022/05/28 03:07:13;;;;;;;7.43;1.48;;;;;;;;;;5098727;27;20031;-73
2022/05/28 03:09:38;;;;;;;4.07;1.30;;;;;;;;;;5098022;27;20031;-74
2022/05/28 03:12:04;;;;;;;8.38;1.73;;;;;;;;;;5119916;27;20080;-75
2022/05/28 03:14:29;;;;;;;7.93;1.50;;;;;;;;;;5106580;27;20075;-73
2022/05/28 03:16:55;;;;;;;4.43;1.45;;;;;;;;;;5119573;27;20035;-77
2022/05/28 03:19:20;;;;;;;6.85;1.50;;;;;;;;;;5098142;27;20024;-76
2022/05/28 03:21:45;;;;;;;7.43;1.60;;;;;;;;;;5100339;27;20027;-77
2022/05/28 03:24:11;;;;;;;5.28;1.33;;;;;;;;;;5117182;27;20087;-77
2022/05/28 03:26:36;;;;;;;6.03;1.00;;;;;;;;;;5104072;27;20065;-77
2022/05/28 03:29:03;;;;;;;6.13;1.13;;;;;;;;;;5098874;27;20383;-76
2022/05/28 03:31:29;;;;;;;4.95;1.13;;;;;;;;;;5113633;27;20044;-76
2022/05/28 03:33:55;;;;;;;5.60;1.48;;;;;;;;;;5102207;27;20051;-76
2022/05/28 03:36:21;;;;;;;4.28;1.48;;;;;;;;;;5117642;27;20031;-76
2022/05/28 03:38:47;;;;;;;6.00;1.42;;;;;;;;;;5116401;27;20058;-75
2022/05/28 03:41:12;;;;;;;3.28;1.10;;;;;;;;;;5103091;27;20456;-75
2022/05/28 03:43:38;;;;;;;8.38;1.42;;;;;;;;;;5111194;27;20058;-72
2022/05/28 03:46:03;;;;;;;6.38;1.33;;;;;;;;;;5096779;27;20034;-73
2022/05/28 03:48:31;;;;;;;6.90;1.80;;;;;;;;;;5101814;27;20208;-72
2022/05/28 03:50:56;;;;;;;7.10;1.33;;;;;;;;;;5107200;27;20035;-73
2022/05/28 03:53:22;;;;;;;6.32;1.48;;;;;;;;;;5124618;27;20023;-73
2022/05/28 03:55:48;;;;;;;4.28;1.20;;;;;;;;;;5112501;27;20535;-77
2022/05/28 03:58:14;;;;;;;6.45;1.42;;;;;;;;;;5094084;27;20024;-75
2022/05/28 04:00:40;;;;;;;4.95;1.58;;;;;;;;;;5107096;27;20023;-77
2022/05/28 04:03:06;;;;;;;6.65;1.27;;;;;;;;;;5118669;27;20441;-73
2022/05/28 04:05:31;;;;;;;5.78;1.10;;;;;;;;;;5117219;27;20118;-76
2022/05/28 04:07:56;;;;;;;6.75;1.33;;;;;;;;;;5118600;27;20039;-77
2022/05/28 04:10:22;;;;;;;6.03;1.55;;;;;;;;;;5099923;27;20099;-73
2022/05/28 04:12:48;;;;;;;7.78;1.48;;;;;;;;;;5122570;27;20022;-74
2022/05/28 04:15:13;;;;;;;5.68;1.50;;;;;;;;;;5111074;27;20033;-77
2022/05/28 04:17:38;;;;;;;5.68;1.20;;;;;;;;;;5117833;27;20394;-73
2022/05/28 04:20:06;;;;;;;5.15;1.52;;;;;;;;;;5111010;27;20030;-76
2022/05/28 04:22:31;;;;;;;7.88;2.45;;;;;;;;;;5112498;27;20062;-77
2022/05/28 04:24:56;;;;;;;9.05;1.67;;;;;;;;;;5110393;27;20073;-74
2022/05/28 04:27:22;;;;;;;3.63;1.27;;;;;;;;;;5116281;27;20417;-76
2022/05/28 04:29:47;;;;;;;7.50;1.65;;;;;;;;;;5096066;27;20027;-76
2022/05/28 04:32:12;;;;;;;10.98;1.45;;;;;;;;;;5097258;27;20036;-73
2022/05/28 04:34:38;;;;;;;7.32;1.58;;;;;;;;;;5092968;28;20052;-73
2022/05/28 04:37:03;;;;;;;6.65;1.92;;;;;;;;;;5099998;28;20471;-76
2022/05/28 04:39:29;;;;;;;4.93;1.00;;;;;;;;;;5098074;28;20043;-74
2022/05/28 04:41:54;;;;;;;4.43;1.17;;;;;;;;;;5106549;28;20039;-73
2022/05/28 04:44:20;;;;;;;3.72;1.20;;;;;;;;;;5094374;28;20027;-73
2022/05/28 04:46:45;;;;;;;6.25;1.10;;;;;;;;;;5091798;28;20031;-73
2022/05/28 04:49:11;;;;;;;5.63;1.35;;;;;;;;;;5094112;28;20027;-75
2022/05/28 04:51:36;;;;;;;4.70;1.17;;;;;;;;;;5092905;28;20024;-76
2022/05/28 04:54:01;;;;;;;4.22;1.10;;;;;;;;;;5098336;28;20028;-72
2022/05/28 04:56:27;;;;;;;2.38;0.82;;;;;;;;;;5092799;28;20016;-73
2022/05/28 04:58:52;;;;;;;7.22;1.52;;;;;;;;;;5094257;28;20374;-72
2022/05/28 05:01:20;;;;;;;4.72;1.52;;;;;;;;;;5097185;28;20020;-77
2022/05/28 05:03:45;;;;;;;5.82;1.10;;;;;;;;;;5101364;28;20032;-74
2022/05/28 05:06:11;;;;;;;4.40;1.30;;;;;;;;;;5098359;28;20016;-73
2022/05/28 05:08:37;;;;;;;7.60;1.35;;;;;;;;;;5098821;28;20104;-72
2022/05/28 05:11:02;;;;;;;3.10;0.90;;;;;;;;;;5097107;28;20085;-75
2022/05/28 05:13:27;;;;;;;3.72;0.95;;;;;;;;;;5100607;28;20055;-72
2022/05/28 05:15:53;;;;;;;3.40;0.85;;;;;;;;;;5098061;28;20038;-73
2022/05/28 05:18:18;;;;;;;3.60;0.82;;;;;;;;;;5100140;28;20028;-76
2022/05/28 05:20:44;;;;;;;2.25;0.88;;;;;;;;;;5097900;28;20494;-73
2022/05/28 05:23:09;;;;;;;5.68;0.90;;;;;;;;;;5096194;28;20027;-74
2022/05/28 05:25:35;;;;;;;6.40;1.08;;;;;;;;;;5095919;28;20023;-74
2022/05/28 05:28:00;;;;;;;4.03;0.80;;;;;;;;;;5100065;28;20055;-72
2022/05/28 05:30:26;;;;;;;3.13;0.82;;;;;;;;;;5090999;28;20040;-77
2022/05/28 05:32:51;;;;;;;2.88;0.80;;;;;;;;;;5094705;28;20032;-73
2022/05/28 05:35:17;;;;;;;2.65;0.68;;;;;;;;;;5098044;28;20066;-73
2022/05/28 05:37:42;;;;;;;4.85;0.80;;;;;;;;;;5121047;28;20035;-73
2022/05/28 05:40:11;;;;;;;2.80;0.80;;;;;;;;;;5101625;28;20114;-76
2022/05/28 05:42:36;;;;;;;5.65;1.00;;;;;;;;;;5117726;27;20403;-73
2022/05/28 05:45:01;;;;;;;3.45;0.68;;;;;;;;;;5117969;28;20019;-76
2022/05/28 05:47:27;;;;;;;2.95;0.70;;;;;;;;;;5097879;28;20059;-75
2022/05/28 05:49:52;;;;;;;3.60;0.60;;;;;;;;;;5117908;28;20027;-72
2022/05/28 05:52:17;;;;;;;3.25;0.80;;;;;;;;;;5124523;27;20014;-75
2022/05/28 05:54:43;;;;;;;4.03;0.90;;;;;;;;;;5102622;28;20083;-77
2022/05/28 05:57:08;;;;;;;2.05;0.50;;;;;;;;;;5115457;28;20065;-76
2022/05/28 05:59:34;;;;;;;3.80;0.90;;;;;;;;;;5119019;28;20035;-77
2022/05/28 06:01:59;;;;;;;1.95;0.60;;;;;;;;;;5112713;28;20475;-76
2022/05/28 06:04:25;;;;;;;5.43;0.80;;;;;;;;;;5114671;27;20023;-74
2022/05/28 06:06:50;;;;;;;2.50;0.70;;;;;;;;;;5124566;27;20534;-77
2022/05/28 06:09:16;;;;;;;5.07;0.82;;;;;;;;;;5121184;27;20447;-75
2022/05/28 06:11:41;;;;;;;4.20;0.85;;;;;;;;;;5101610;27;20031;-73
2022/05/28 06:14:06;;;;;;;3.35;0.90;;;;;;;;;;5115883;27;20041;-72
2022/05/28 06:16:32;;;;;;;4.03;0.80;;;;;;;;;;5108614;27;20043;-77
2022/05/28 06:18:57;;;;;;;4.47;0.70;;;;;;;;;;5117906;27;20026;-77
2022/05/28 06:21:25;;;;;;;2.97;0.70;;;;;;;;;;5103894;27;20024;-72
2022/05/28 06:23:50;;;;;;;2.25;0.63;;;;;;;;;;5106408;27;20546;-72
2022/05/28 06:26:15;;;;;;;4.93;0.82;;;;;;;;;;5101433;27;20118;-77
2022/05/28 06:28:41;;;;;;;3.50;0.70;;;;;;;;;;5119708;27;20421;-75
2022/05/28 06:31:10;;;;;;;5.93;0.90;;;;;;;;;;5124083;27;20027;-77
2022/05/28 06:33:36;;;;;;;4.45;0.60;;;;;;;;;;5102167;27;20128;-78
2022/05/28 06:36:05;;;;;;;4.43;0.73;;;;;;;;;;5101318;27;20019;-73
2022/05/28 06:38:30;;;;;;;3.60;0.95;;;;;;;;;;5120491;27;20118;-72
2022/05/28 06:40:55;;;;;;;2.17;0.75;;;;;;;;;;5121030;27;20106;-76
2022/05/28 06:43:22;;;;;;;4.05;0.82;;;;;;;;;;5116400;27;20027;-75
2022/05/28 06:45:47;;;;;;;4.15;0.88;;;;;;;;;;5103454;27;20031;-73
2022/05/28 06:48:13;;;;;;;6.85;0.98;;;;;;;;;;5120072;27;20101;-73
2022/05/28 06:53:23;;;;;;;5.93;0.90;;;;;;;;;;5118054;27;20077;-76
2022/05/28 06:55:48;;;;;;;3.15;0.80;;;;;;;;;;5102985;27;20023;-76
2022/05/28 06:58:14;;;;;;;2.65;0.60;;;;;;;;;;5103021;27;20043;-73
2022/05/28 07:00:40;;;;;;;2.85;1.08;;;;;;;;;;5122358;27;20054;-76
2022/05/28 07:03:06;;;;;;;4.35;0.90;;;;;;;;;;5101986;27;20029;-77
2022/05/28 07:05:31;;;;;;;1.80;0.60;;;;;;;;;;5094927;27;20027;-76
2022/05/28 07:07:57;;;;;;;2.05;0.63;;;;;;;;;;5110543;27;20016;-74
2022/05/28 07:10:23;;;;;;;2.50;0.60;;;;;;;;;;5123963;27;20023;-77
2022/05/28 07:12:49;;;;;;;3.65;0.63;;;;;;;;;;5127639;27;20550;-77
2022/05/28 07:15:14;;;;;;;2.15;0.65;;;;;;;;;;5120765;27;20019;-76
2022/05/28 07:17:43;;;;;;;2.60;0.77;;;;;;;;;;5120568;27;20023;-73
2022/05/28 07:20:10;;;;;;;1.38;0.55;;;;;;;;;;5120229;27;20503;-75
2022/05/28 07:22:36;;;;;;;4.47;0.95;;;;;;;;;;5108227;27;20106;-76
2022/05/28 07:25:02;;;;;;;3.08;0.80;;;;;;;;;;5124454;27;20119;-77
2022/05/28 07:27:27;;;;;;;4.15;0.90;;;;;;;;;;5127211;27;20019;-73
2022/05/28 07:29:56;;;;;;;3.97;0.80;;;;;;;;;;5103819;27;20019;-76
2022/05/28 07:32:24;;;;;;;6.55;0.90;;;;;;;;;;5117206;27;20497;-76
2022/05/28 07:34:50;;;;;;;4.15;0.88;;;;;;;;;;5125732;27;20035;-73
2022/05/28 07:37:15;;;;;;;3.28;0.70;;;;;;;;;;5122624;27;20436;-77
2022/05/28 07:39:41;;;;;;;3.88;0.80;;;;;;;;;;5098790;27;20020;-76
2022/05/28 07:42:06;;;;;;;2.97;0.80;;;;;;;;;;5122442;27;20024;-77
2022/05/28 07:44:32;;;;;;;2.47;0.75;;;;;;;;;;5116323;27;20023;-73
2022/05/28 07:46:57;;;;;;;5.28;1.10;;;;;;;;;;5102297;27;20027;-77
2022/05/28 07:49:22;;;;;;;2.75;0.70;;;;;;;;;;5121011;27;20028;-74
2022/05/28 07:51:48;;;;;;;4.70;0.88;;;;;;;;;;5102196;27;20019;-72
2022/05/28 07:54:16;;;;;;;4.28;0.77;;;;;;;;;;5119189;27;20042;-77
2022/05/28 07:56:41;;;;;;;3.10;1.10;;;;;;;;;;5118219;27;20066;-76
2022/05/28 07:59:06;;;;;;;2.17;0.80;;;;;;;;;;5107863;27;20465;-77
2022/05/28 08:01:32;;;;;;;1.80;0.65;;;;;;;;;;5101499;27;20383;-73
2022/05/28 08:04:02;;;;;;;3.92;0.80;;;;;;;;;;5119561;27;20050;-72
2022/05/28 08:06:30;;;;;;;2.42;0.70;;;;;;;;;;5120638;27;20101;-78
2022/05/28 08:08:56;;;;;;;3.95;0.90;;;;;;;;;;5121895;27;20032;-72
2022/05/28 08:11:22;;;;;;;5.45;1.10;;;;;;;;;;5107180;27;20380;-76
2022/05/28 08:13:47;;;;;;;2.53;0.90;;;;;;;;;;5098119;27;20398;-75
2022/05/28 08:16:14;;;;;;;2.58;0.60;;;;;;;;;;5117655;27;20084;-73
2022/05/28 08:18:39;;;;;;;2.05;0.77;;;;;;;;;;5116752;27;20475;-75
2022/05/28 08:23:50;;;;;;;4.43;0.55;;;;;;;;;;5121715;27;20094;-76
2022/05/28 08:26:18;;;;;;;2.20;0.60;;;;;;;;;;5108871;27;20503;-73
2022/05/28 08:28:44;;;;;;;3.40;0.80;;;;;;;;;;5116531;27;20019;-77
2022/05/28 08:31:09;;;;;;;4.18;1.10;;;;;;;;;;5113529;27;20039;-75
2022/05/28 08:33:35;;;;;;;2.88;0.70;;;;;;;;;;5120460;27;20415;-78
2022/05/28 08:36:00;;;;;;;3.42;0.60;;;;;;;;;;5115833;27;20495;-72
2022/05/28 08:38:26;;;;;;;1.58;0.70;;;;;;;;;;5118064;27;20042;-73
2022/05/28 08:41:05;;;;;;;1.88;0.65;;;;;;;;;;5114973;27;20034;-73
2022/05/28 08:43:37;;;;;;;2.42;0.70;;;;;;;;;;5121461;27;20477;-76
2022/05/28 08:46:03;;;;;;;3.22;0.90;;;;;;;;;;5099716;27;20467;-72
2022/05/28 08:48:40;;;;;;;4.20;0.80;;;;;;;;;;5126803;27;20026;-73
2022/05/28 08:51:13;;;;;;;2.92;0.77;;;;;;;;;;5118097;27;20106;-77
2022/05/28 08:53:44;;;;;;;4.35;0.88;;;;;;;;;;5117520;27;20035;-73
2022/05/28 08:56:21;;;;;;;4.90;0.90;;;;;;;;;;5095646;28;20024;-73
2022/05/28 08:59:00;;;;;;;6.80;0.88;;;;;;;;;;5116827;27;20034;-77
2022/05/28 09:01:28;;;;;;;3.85;1.00;;;;;;;;;;5115342;27;20027;-73
2022/05/28 09:04:00;;;;;;;2.20;0.75;;;;;;;;;;5123457;27;20043;-78
2022/05/28 09:06:43;;;;;;;4.22;0.82;;;;;;;;;;5095646;28;20387;-73
2022/05/28 09:09:12;;;;;;;6.93;1.00;;;;;;;;;;5121358;28;20058;-73
2022/05/28 09:11:43;;;;;;;4.05;1.02;;;;;;;;;;5121172;27;20035;-77
2022/05/28 09:14:22;;;;;;;2.65;0.77;;;;;;;;;;5121927;28;20054;-77
2022/05/28 09:16:50;;;;;;;3.88;1.00;;;;;;;;;;5124275;28;20027;-74
2022/05/28 09:19:21;;;;;;;3.78;0.77;;;;;;;;;;5103312;28;20019;-73
2022/05/28 09:21:48;;;;;;;2.75;0.70;;;;;;;;;;5115706;28;20368;-73
2022/05/28 09:24:17;;;;;;;4.85;1.02;;;;;;;;;;5104307;28;20020;-76
2022/05/28 09:27:04;;;;;;;3.15;0.90;;;;;;;;;;5118066;28;20019;-76
2022/05/28 09:29:59;;;;;;;4.70;1.10;;;;;;;;;;5122804;27;20032;-78
2022/05/28 09:32:36;;;;;;;2.90;0.80;;;;;;;;;;5119320;28;20047;-76
2022/05/28 09:35:11;;;;;;;2.55;0.75;;;;;;;;;;5113734;28;20051;-76
2022/05/28 09:37:43;;;;;;;2.28;0.75;;;;;;;;;;5113580;28;20043;-73
2022/05/28 09:40:19;;;;;;;4.60;0.90;;;;;;;;;;5114962;28;20028;-76
2022/05/28 09:43:21;;;;;;;4.05;0.80;;;;;;;;;;5127408;27;20034;-74
2022/05/28 09:46:00;;;;;;;2.75;0.63;;;;;;;;;;5089631;27;20041;-74
2022/05/28 09:48:28;;;;;;;2.63;0.80;;;;;;;;;;5124748;27;20019;-76
2022/05/28 09:50:55;;;;;;;2.65;0.70;;;;;;;;;;5103490;27;20034;-76
2022/05/28 09:56:21;;;;;;;3.10;0.73;;;;;;;;;;5121996;27;20026;-74
2022/05/28 09:58:46;;;;;;;4.68;0.90;;;;;;;;;;5116901;27;20046;-75
2022/05/28 10:01:22;;;;;;;3.33;0.70;;;;;;;;;;5099419;27;20023;-75
2022/05/28 10:06:34;;;;;;;3.53;0.75;;;;;;;;;;5114232;27;20076;-73
2022/05/28 10:09:12;;;;;;;5.65;0.90;;;;;;;;;;5106673;27;20031;-75
2022/05/28 10:11:48;;;;;;;5.78;1.20;;;;;;;;;;5115597;27;20110;-72
2022/05/28 10:14:16;;;;;;;2.78;0.70;;;;;;;;;;5122778;27;20076;-73
2022/05/28 10:16:41;;;;;;;3.30;0.80;;;;;;;;;;5125265;27;20038;-76
2022/05/28 10:19:17;;;;;;;4.03;1.00;;;;;;;;;;5112605;27;20394;-73
2022/05/28 10:21:49;;;;;;;3.42;0.90;;;;;;;;;;5120376;27;20057;-73
2022/05/28 10:24:18;;;;;;;5.80;1.73;;;;;;;;;;5120582;27;20164;-77
2022/05/28 10:27:01;;;;;;;3.83;0.90;;;;;;;;;;5122846;27;20067;-76
2022/05/28 10:29:38;;;;;;;3.33;0.60;;;;;;;;;;5116822;27;20498;-77
2022/05/28 10:32:21;;;;;;;7.03;0.90;;;;;;;;;;5115227;27;20039;-77
2022/05/28 10:35:10;;;;;;;4.07;0.90;;;;;;;;;;5123994;27;20119;-73
2022/05/28 10:37:36;;;;;;;3.88;0.77;;;;;;;;;;5104205;27;20082;-73
2022/05/28 10:40:23;;;;;;;2.72;0.70;;;;;;;;;;5126238;27;20475;-76
2022/05/28 10:42:51;;;;;;;2.03;0.70;;;;;;;;;;5122716;27;20046;-77
2022/05/28 10:45:19;;;;;;;4.25;0.60;;;;;;;;;;5123259;27;20022;-73
2022/05/28 10:48:00;;;;;;;5.40;0.85;;;;;;;;;;5117485;27;20072;-73
2022/05/28 10:50:36;;;;;;;5.00;1.00;;;;;;;;;;5122168;27;20051;-76
2022/05/28 10:53:28;;;;;;;5.15;0.90;;;;;;;;;;5119989;27;20043;-77
2022/05/28 10:56:08;;;;;;;5.20;1.17;;;;;;;;;;5117360;27;20016;-77
2022/05/28 10:58:54;;;;;;;4.07;1.00;;;;;;;;;;5130221;27;20019;-73
2022/05/28 11:01:57;;;;;;;3.08;0.82;;;;;;;;;;5125513;27;20433;-77
2022/05/28 11:04:37;;;;;;;5.03;0.90;;;;;;;;;;5107105;27;20023;-73
2022/05/28 11:07:27;;;;;;;3.88;0.82;;;;;;;;;;5125475;27;20075;-77
2022/05/28 11:10:03;;;;;;;2.28;0.75;;;;;;;;;;5107984;27;20042;-74
2022/05/28 11:13:01;;;;;;;2.42;0.70;;;;;;;;;;5119191;27;20023;-73
2022/05/28 11:16:08;;;;;;;4.50;0.88;;;;;;;;;;5118544;27;20072;-73
2022/05/28 11:19:09;;;;;;;4.55;1.40;;;;;;;;;;5120532;27;20403;-76
2022/05/28 11:22:02;;;;;;;4.78;1.13;;;;;;;;;;5047436;28;20024;-74
2022/05/28 11:24:55;;;;;;;4.50;1.25;;;;;;;;;;5113325;27;20035;-74
2022/05/28 11:27:41;;;;;;;4.83;1.00;;;;;;;;;;5125244;27;20110;-76
2022/05/28 11:30:14;;;;;;;3.40;1.10;;;;;;;;;;5124621;27;20023;-73
2022/05/28 11:32:59;;;;;;;4.35;0.82;;;;;;;;;;5103881;27;20036;-77
2022/05/28 11:35:31;;;;;;;5.30;0.90;;;;;;;;;;5114900;27;20130;-73
2022/05/28 11:38:20;;;;;;;4.55;0.90;;;;;;;;;;5105293;27;20035;-74
2022/05/28 11:40:56;;;;;;;4.72;1.10;;;;;;;;;;5120686;27;20145;-76
2022/05/28 11:43:30;;;;;;;5.03;1.20;;;;;;;;;;5106831;27;20033;-76
2022/05/28 11:46:16;;;;;;;2.65;0.80;;;;;;;;;;5119830;27;20031;-77
2022/05/28 11:51:43;;;;;;;4.00;0.80;;;;;;;;;;5121369;27;20110;-74
2022/05/28 11:54:21;;;;;;;2.92;0.80;;;;;;;;;;5120895;27;20049;-75
2022/05/28 11:56:49;;;;;;;3.05;1.02;;;;;;;;;;5100999;27;20038;-74
2022/05/28 11:59:22;;;;;;;4.00;1.00;;;;;;;;;;5122771;27;20031;-77
2022/05/28 12:01:49;;;;;;;;;;;;;;;;;;5118673;27;20035;-76
2022/05/28 12:04:15;;;;;;;3.50;0.95;;;;;;;;;;5107763;27;20645;-74
2022/05/28 12:06:48;;;;;;;2.40;0.70;;;;;;;;;;5109400;27;20027;-72
2022/05/28 12:09:18;;;;;;;4.63;0.90;;;;;;;;;;5121396;27;20555;-76
2022/05/28 12:12:00;;;;;;;3.95;0.93;;;;;;;;;;5120542;27;20042;-74
2022/05/28 12:14:32;;;;;;;4.80;0.80;;;;;;;;;;5106296;27;20027;-74
2022/05/28 12:17:04;;;;;;;4.68;0.90;;;;;;;;;;5115172;27;20015;-75
2022/05/28 12:19:31;;;;;;;3.95;1.10;;;;;;;;;;5103068;27;20024;-74
2022/05/28 12:22:22;;;;;;;3.47;0.93;;;;;;;;;;5119143;27;20391;-75
2022/05/28 12:24:59;;;;;;;4.30;1.20;;;;;;;;;;5117171;27;20471;-73
2022/05/28 12:27:36;;;;;;;6.85;1.40;;;;;;;;;;5117493;27;20036;-75
2022/05/28 12:30:02;;;;;;;5.93;1.35;;;;;;;;;;5097425;27;20027;-73
2022/05/28 12:32:48;;;;;;;8.48;1.45;;;;;;;;;;5118997;27;20023;-74
2022/05/28 12:35:20;;;;;;;4.95;1.15;;;;;;;;;;5114894;27;20096;-73
2022/05/28 12:37:56;;;;;;;4.03;0.80;;;;;;;;;;5106879;27;20031;-75
2022/05/28 12:40:45;;;;;;;4.65;0.90;;;;;;;;;;5121386;27;20063;-75
2022/05/28 12:43:33;;;;;;;5.50;0.95;;;;;;;;;;5120838;27;20101;-75
2022/05/28 12:46:12;;;;;;;7.18;1.23;;;;;;;;;;5120718;27;20027;-73
2022/05/28 12:48:39;;;;;;;4.18;0.88;;;;;;;;;;5106419;27;20146;-72
2022/05/28 12:51:26;;;;;;;5.90;1.38;;;;;;;;;;5110338;27;20109;-73
2022/05/28 12:53:54;;;;;;;4.20;0.80;;;;;;;;;;5108650;27;20039;-74
2022/05/28 12:56:44;;;;;;;4.15;1.20;;;;;;;;;;5112952;27;20031;-72
2022/05/28 12:59:14;;;;;;;4.00;0.80;;;;;;;;;;5119311;27;20031;-73
2022/05/28 13:01:54;;;;;;;3.97;0.73;;;;;;;;;;5093433;28;20387;-73
2022/05/28 13:04:20;;;;;;;2.50;0.77;;;;;;;;;;5112703;27;20030;-78
2022/05/28 13:06:52;;;;;;;4.75;0.80;;;;;;;;;;5108708;28;20028;-72
2022/05/28 13:09:24;;;;;;;5.25;1.00;;;;;;;;;;5109203;28;20065;-73
2022/05/28 13:12:11;;;;;;;3.00;0.77;;;;;;;;;;5109867;27;20514;-73
2022/05/28 13:14:54;;;;;;;5.07;1.17;;;;;;;;;;5119602;28;20106;-76
2022/05/28 13:17:36;;;;;;;4.18;1.75;;;;;;;;;;5118700;27;20121;-74
2022/05/28 13:20:21;;;;;;;4.50;0.85;;;;;;;;;;5120630;27;20076;-76
2022/05/28 13:23:10;;;;;;;6.22;1.00;;;;;;;;;;5081873;27;20118;-75
2022/05/28 13:25:56;;;;;;;5.00;0.90;;;;;;;;;;5115267;27;20387;-76
2022/05/28 13:29:08;;;;;;;3.42;1.00;;;;;;;;;;5121435;27;20096;-76
2022/05/28 13:31:39;;;;;;;2.45;0.80;;;;;;;;;;5103908;27;20547;-75
2022/05/28 13:34:05;;;;;;;5.93;1.52;;;;;;;;;;5128130;27;20046;-75
2022/05/28 13:36:32;;;;;;;4.15;1.10;;;;;;;;;;5117384;27;20543;-74
2022/05/28 13:38:59;;;;;;;5.28;1.17;;;;;;;;;;5122642;27;20378;-73
2022/05/28 13:41:27;;;;;;;2.97;1.10;;;;;;;;;;5106353;27;20015;-75
2022/05/28 13:43:58;;;;;;;3.55;1.33;;;;;;;;;;5102363;27;20172;-75
2022/05/28 13:46:24;;;;;;;3.70;1.20;;;;;;;;;;5119687;27;20019;-76
2022/05/28 13:48:56;;;;;;;3.83;1.40;;;;;;;;;;5099890;27;20035;-75
2022/05/28 13:51:24;;;;;;;3.72;1.15;;;;;;;;;;5115303;27;20031;-76
2022/05/28 13:53:56;;;;;;;4.07;1.23;;;;;;;;;;5128899;27;20577;-76
2022/05/28 13:56:28;;;;;;;3.55;1.42;;;;;;;;;;5118139;27;20055;-76
2022/05/28 13:58:57;;;;;;;5.13;1.15;;;;;;;;;;5126189;27;20023;-73
2022/05/28 14:01:27;;;;;;;5.68;1.10;;;;;;;;;;5119124;27;20016;-73
2022/05/28 14:03:53;;;;;;;3.58;1.10;;;;;;;;;;5123316;27;20035;-72
2022/05/28 14:06:27;;;;;;;2.85;0.68;;;;;;;;;;5122995;27;20035;-73
2022/05/28 14:08:54;;;;;;;4.10;1.25;;;;;;;;;;5120031;27;20037;-73
2022/05/28 14:11:33;;;;;;;4.30;1.10;;;;;;;;;;5116519;27;20020;-76
2022/05/28 14:14:03;;;;;;;5.22;0.90;;;;;;;;;;5115940;27;20034;-75
2022/05/28 14:16:59;;;;;;;3.40;0.95;;;;;;;;;;5121294;27;20027;-75
2022/05/28 14:19:39;;;;;;;3.58;1.00;;;;;;;;;;5110008;27;20122;-73
2022/05/28 14:22:07;;;;;;;3.38;1.17;;;;;;;;;;5124590;27;20019;-76
2022/05/28 14:24:38;;;;;;;3.40;1.00;;;;;;;;;;5123958;27;20106;-73
2022/05/28 14:27:09;;;;;;;3.85;0.90;;;;;;;;;;5116165;27;20024;-74
2022/05/28 14:29:38;;;;;;;2.72;0.80;;;;;;;;;;5114318;27;20443;-72
2022/05/28 14:32:10;;;;;;;5.13;1.10;;;;;;;;;;5099304;27;20023;-74
2022/05/28 14:34:41;;;;;;;2.58;1.10;;;;;;;;;;5117716;27;20548;-74
2022/05/28 14:37:08;;;;;;;2.95;1.00;;;;;;;;;;5104747;27;20031;-72
2022/05/28 14:39:44;;;;;;;5.03;0.98;;;;;;;;;;5121554;27;20464;-72
2022/05/28 14:42:13;;;;;;;6.40;1.13;;;;;;;;;;5115936;27;20088;-74
2022/05/28 14:44:39;;;;;;;6.40;1.25;;;;;;;;;;5116456;27;20403;-75
2022/05/28 14:47:16;;;;;;;3.92;0.85;;;;;;;;;;5116492;27;20102;-72
2022/05/28 14:49:50;;;;;;;4.47;0.95;;;;;;;;;;5101834;27;20087;-74
2022/05/28 14:52:18;;;;;;;4.55;1.13;;;;;;;;;;5120595;27;20036;-71
2022/05/28 14:54:58;;;;;;;5.32;0.90;;;;;;;;;;5119236;27;20039;-72
2022/05/28 14:57:38;;;;;;;5.38;1.33;;;;;;;;;;5097576;27;20030;-74
2022/05/28 15:00:11;;;;;;;6.05;1.00;;;;;;;;;;5119407;27;20043;-75
2022/05/28 15:02:37;;;;;;;3.47;0.98;;;;;;;;;;5117969;27;20027;-75
2022/05/28 15:05:21;;;;;;;4.43;1.63;;;;;;;;;;5112496;27;20023;-73
2022/05/28 15:07:51;;;;;;;2.95;0.95;;;;;;;;;;5091243;27;20061;-72
2022/05/28 15:10:23;;;;;;;5.43;1.38;;;;;;;;;;5113516;27;20029;-75
2022/05/28 15:12:48;;;;;;;4.53;1.13;;;;;;;;;;5112379;27;20033;-74
2022/05/28 15:15:13;;;;;;;5.43;1.27;;;;;;;;;;5115484;27;20031;-74
2022/05/28 15:17:40;;;;;;;5.60;1.20;;;;;;;;;;5118790;27;20031;-74